sensor_id;sensor_type;location;lat;lon;timestamp;temperature;humidity
40638;DHT22;26336;44.696;10.622;2022-07-15T00:02:39;28.20;74.50
40638;DHT22;26336;44.696;10.622;2022-07-15T00:05:43;28.20;74.40
40638;DHT22;26336;44.696;10.622;2022-07-15T00:08:51;28.20;74.00
40638;DHT22;26336;44.696;10.622;2022-07-15T00:11:56;28.20;74.10
40638;DHT22;26336;44.696;10.622;2022-07-15T00:15:02;28.20;74.10
40638;DHT22;26336;44.696;10.622;2022-07-15T00:18:06;28.10;74.30
40638;DHT22;26336;44.696;10.622;2022-07-15T00:21:10;28.10;74.50
40638;DHT22;26336;44.696;10.622;2022-07-15T00:24:15;28.10;74.50
40638;DHT22;26336;44.696;10.622;2022-07-15T00:27:19;28.00;74.60
40638;DHT22;26336;44.696;10.622;2022-07-15T00:30:27;27.80;75.00
40638;DHT22;26336;44.696;10.622;2022-07-15T00:33:32;27.70;75.20
40638;DHT22;26336;44.696;10.622;2022-07-15T00:36:35;27.70;75.30
40638;DHT22;26336;44.696;10.622;2022-07-15T00:39:41;27.70;75.50
40638;DHT22;26336;44.696;10.622;2022-07-15T00:42:46;27.80;75.60
40638;DHT22;26336;44.696;10.622;2022-07-15T00:45:50;27.80;75.60
40638;DHT22;26336;44.696;10.622;2022-07-15T00:48:58;27.70;75.60
40638;DHT22;26336;44.696;10.622;2022-07-15T00:52:03;27.70;75.90
40638;DHT22;26336;44.696;10.622;2022-07-15T00:55:10;27.70;76.10
40638;DHT22;26336;44.696;10.622;2022-07-15T00:58:21;27.70;76.30
40638;DHT22;26336;44.696;10.622;2022-07-15T01:01:27;27.70;76.40
40638;DHT22;26336;44.696;10.622;2022-07-15T01:04:33;27.70;76.60
40638;DHT22;26336;44.696;10.622;2022-07-15T01:07:37;27.70;76.50
40638;DHT22;26336;44.696;10.622;2022-07-15T01:10:45;27.60;76.10
40638;DHT22;26336;44.696;10.622;2022-07-15T01:13:49;27.60;75.70
40638;DHT22;26336;44.696;10.622;2022-07-15T01:16:53;27.60;75.80
40638;DHT22;26336;44.696;10.622;2022-07-15T01:20:01;27.50;75.60
40638;DHT22;26336;44.696;10.622;2022-07-15T01:23:12;27.50;75.60
40638;DHT22;26336;44.696;10.622;2022-07-15T01:26:34;27.50;75.70
40638;DHT22;26336;44.696;10.622;2022-07-15T01:29:38;27.50;75.70
40638;DHT22;26336;44.696;10.622;2022-07-15T01:32:43;27.50;75.70
40638;DHT22;26336;44.696;10.622;2022-07-15T01:35:50;27.50;75.50
40638;DHT22;26336;44.696;10.622;2022-07-15T01:38:55;27.50;75.70
40638;DHT22;26336;44.696;10.622;2022-07-15T01:42:00;27.50;75.80
40638;DHT22;26336;44.696;10.622;2022-07-15T01:45:05;27.50;75.80
40638;DHT22;26336;44.696;10.622;2022-07-15T01:48:13;27.40;75.70
40638;DHT22;26336;44.696;10.622;2022-07-15T01:51:55;27.40;75.90
40638;DHT22;26336;44.696;10.622;2022-07-15T01:55:04;27.40;76.00
40638;DHT22;26336;44.696;10.622;2022-07-15T01:58:12;27.40;76.30
40638;DHT22;26336;44.696;10.622;2022-07-15T02:01:18;27.30;76.30
40638;DHT22;26336;44.696;10.622;2022-07-15T02:04:29;27.30;76.80
40638;DHT22;26336;44.696;10.622;2022-07-15T02:07:33;27.30;76.90
40638;DHT22;26336;44.696;10.622;2022-07-15T02:10:37;27.10;77.30
40638;DHT22;26336;44.696;10.622;2022-07-15T02:13:49;27.00;77.30
40638;DHT22;26336;44.696;10.622;2022-07-15T02:16:54;27.00;77.30
40638;DHT22;26336;44.696;10.622;2022-07-15T02:20:06;26.90;77.70
40638;DHT22;26336;44.696;10.622;2022-07-15T02:23:10;26.80;77.80
40638;DHT22;26336;44.696;10.622;2022-07-15T02:26:14;26.90;77.80
40638;DHT22;26336;44.696;10.622;2022-07-15T02:29:18;26.90;77.80
40638;DHT22;26336;44.696;10.622;2022-07-15T02:32:22;26.90;77.70
40638;DHT22;26336;44.696;10.622;2022-07-15T02:35:26;26.90;77.50
40638;DHT22;26336;44.696;10.622;2022-07-15T02:38:30;26.90;77.40
40638;DHT22;26336;44.696;10.622;2022-07-15T02:41:34;26.80;77.50
40638;DHT22;26336;44.696;10.622;2022-07-15T02:44:43;26.80;77.60
40638;DHT22;26336;44.696;10.622;2022-07-15T02:47:51;26.70;77.40
40638;DHT22;26336;44.696;10.622;2022-07-15T02:51:01;26.80;77.40
40638;DHT22;26336;44.696;10.622;2022-07-15T02:54:05;26.70;77.20
40638;DHT22;26336;44.696;10.622;2022-07-15T02:57:10;26.70;77.20
40638;DHT22;26336;44.696;10.622;2022-07-15T03:00:16;26.60;77.20
40638;DHT22;26336;44.696;10.622;2022-07-15T03:03:26;26.60;77.10
40638;DHT22;26336;44.696;10.622;2022-07-15T03:06:32;26.60;77.00
40638;DHT22;26336;44.696;10.622;2022-07-15T03:09:38;26.60;76.90
40638;DHT22;26336;44.696;10.622;2022-07-15T03:12:42;26.50;76.70
40638;DHT22;26336;44.696;10.622;2022-07-15T03:15:47;26.50;76.50
40638;DHT22;26336;44.696;10.622;2022-07-15T03:18:52;26.50;76.30
40638;DHT22;26336;44.696;10.622;2022-07-15T03:21:55;26.50;76.30
40638;DHT22;26336;44.696;10.622;2022-07-15T03:25:02;26.50;76.20
40638;DHT22;26336;44.696;10.622;2022-07-15T03:28:06;26.40;76.20
40638;DHT22;26336;44.696;10.622;2022-07-15T03:31:13;26.40;76.00
40638;DHT22;26336;44.696;10.622;2022-07-15T03:34:18;26.40;75.90
40638;DHT22;26336;44.696;10.622;2022-07-15T03:37:24;26.40;75.90
40638;DHT22;26336;44.696;10.622;2022-07-15T03:40:28;26.40;75.60
40638;DHT22;26336;44.696;10.622;2022-07-15T03:43:32;26.30;75.30
40638;DHT22;26336;44.696;10.622;2022-07-15T03:46:37;26.30;74.90
40638;DHT22;26336;44.696;10.622;2022-07-15T03:49:41;26.30;74.80
40638;DHT22;26336;44.696;10.622;2022-07-15T03:52:46;26.30;74.90
40638;DHT22;26336;44.696;10.622;2022-07-15T03:55:50;26.30;75.10
40638;DHT22;26336;44.696;10.622;2022-07-15T03:58:55;26.20;75.60
40638;DHT22;26336;44.696;10.622;2022-07-15T04:02:00;26.20;75.70
40638;DHT22;26336;44.696;10.622;2022-07-15T04:05:07;26.20;75.00
40638;DHT22;26336;44.696;10.622;2022-07-15T04:08:11;26.10;74.90
40638;DHT22;26336;44.696;10.622;2022-07-15T04:11:16;26.10;75.40
40638;DHT22;26336;44.696;10.622;2022-07-15T04:14:23;26.10;76.30
40638;DHT22;26336;44.696;10.622;2022-07-15T04:17:27;26.00;76.90
40638;DHT22;26336;44.696;10.622;2022-07-15T04:20:31;25.90;76.70
40638;DHT22;26336;44.696;10.622;2022-07-15T04:23:37;25.90;76.30
40638;DHT22;26336;44.696;10.622;2022-07-15T04:26:46;25.90;75.90
40638;DHT22;26336;44.696;10.622;2022-07-15T04:29:53;25.80;75.30
40638;DHT22;26336;44.696;10.622;2022-07-15T04:32:58;25.80;75.10
40638;DHT22;26336;44.696;10.622;2022-07-15T04:36:06;25.70;74.50
40638;DHT22;26336;44.696;10.622;2022-07-15T04:39:12;25.70;74.10
40638;DHT22;26336;44.696;10.622;2022-07-15T04:42:16;25.70;73.80
40638;DHT22;26336;44.696;10.622;2022-07-15T04:45:21;25.60;73.40
40638;DHT22;26336;44.696;10.622;2022-07-15T04:48:26;25.60;73.20
40638;DHT22;26336;44.696;10.622;2022-07-15T04:51:49;25.60;72.80
40638;DHT22;26336;44.696;10.622;2022-07-15T04:54:54;25.60;72.70
40638;DHT22;26336;44.696;10.622;2022-07-15T04:57:58;25.60;72.50
40638;DHT22;26336;44.696;10.622;2022-07-15T05:01:03;25.60;72.60
40638;DHT22;26336;44.696;10.622;2022-07-15T05:04:07;25.60;72.40
40638;DHT22;26336;44.696;10.622;2022-07-15T05:07:12;25.70;72.00
40638;DHT22;26336;44.696;10.622;2022-07-15T05:10:17;25.70;72.00
40638;DHT22;26336;44.696;10.622;2022-07-15T05:13:36;25.70;72.00
40638;DHT22;26336;44.696;10.622;2022-07-15T05:16:42;25.70;72.00
40638;DHT22;26336;44.696;10.622;2022-07-15T05:19:46;25.70;72.00
40638;DHT22;26336;44.696;10.622;2022-07-15T05:22:57;25.70;72.20
40638;DHT22;26336;44.696;10.622;2022-07-15T05:26:03;25.70;72.10
40638;DHT22;26336;44.696;10.622;2022-07-15T05:29:08;25.80;72.50
40638;DHT22;26336;44.696;10.622;2022-07-15T05:32:12;25.90;72.60
40638;DHT22;26336;44.696;10.622;2022-07-15T05:35:16;25.90;72.40
40638;DHT22;26336;44.696;10.622;2022-07-15T05:38:20;25.90;72.40
40638;DHT22;26336;44.696;10.622;2022-07-15T05:41:24;26.00;72.40
40638;DHT22;26336;44.696;10.622;2022-07-15T05:44:29;26.00;72.20
40638;DHT22;26336;44.696;10.622;2022-07-15T05:47:33;26.10;72.00
40638;DHT22;26336;44.696;10.622;2022-07-15T05:50:37;26.20;71.80
40638;DHT22;26336;44.696;10.622;2022-07-15T05:53:43;26.20;71.80
40638;DHT22;26336;44.696;10.622;2022-07-15T05:56:37;26.20;71.80
40638;DHT22;26336;44.696;10.622;2022-07-15T05:59:41;26.30;71.90
40638;DHT22;26336;44.696;10.622;2022-07-15T06:02:46;26.40;71.90
40638;DHT22;26336;44.696;10.622;2022-07-15T06:06:02;26.40;71.80
40638;DHT22;26336;44.696;10.622;2022-07-15T06:09:07;26.50;71.70
40638;DHT22;26336;44.696;10.622;2022-07-15T06:12:12;26.50;71.70
40638;DHT22;26336;44.696;10.622;2022-07-15T06:15:16;26.60;71.80
40638;DHT22;26336;44.696;10.622;2022-07-15T06:18:21;26.70;72.20
40638;DHT22;26336;44.696;10.622;2022-07-15T06:21:27;26.70;72.20
40638;DHT22;26336;44.696;10.622;2022-07-15T06:24:31;26.80;72.00
40638;DHT22;26336;44.696;10.622;2022-07-15T06:27:35;26.90;71.60
40638;DHT22;26336;44.696;10.622;2022-07-15T06:30:39;26.90;71.60
40638;DHT22;26336;44.696;10.622;2022-07-15T06:33:44;27.00;71.60
40638;DHT22;26336;44.696;10.622;2022-07-15T06:36:48;27.10;71.60
40638;DHT22;26336;44.696;10.622;2022-07-15T06:39:53;27.10;72.10
40638;DHT22;26336;44.696;10.622;2022-07-15T06:42:58;27.20;71.80
40638;DHT22;26336;44.696;10.622;2022-07-15T06:46:13;27.20;71.60
40638;DHT22;26336;44.696;10.622;2022-07-15T06:49:19;27.30;72.00
40638;DHT22;26336;44.696;10.622;2022-07-15T06:52:23;27.30;71.00
40638;DHT22;26336;44.696;10.622;2022-07-15T06:55:27;27.40;71.30
40638;DHT22;26336;44.696;10.622;2022-07-15T06:58:31;27.40;71.30
40638;DHT22;26336;44.696;10.622;2022-07-15T07:01:36;27.50;71.30
40638;DHT22;26336;44.696;10.622;2022-07-15T07:04:40;27.50;70.90
40638;DHT22;26336;44.696;10.622;2022-07-15T07:07:46;27.60;70.90
40638;DHT22;26336;44.696;10.622;2022-07-15T07:10:50;27.60;71.20
40638;DHT22;26336;44.696;10.622;2022-07-15T07:13:54;27.60;71.50
40638;DHT22;26336;44.696;10.622;2022-07-15T07:16:58;27.70;71.00
40638;DHT22;26336;44.696;10.622;2022-07-15T07:20:02;27.70;71.30
40638;DHT22;26336;44.696;10.622;2022-07-15T07:23:06;27.80;70.80
40638;DHT22;26336;44.696;10.622;2022-07-15T07:26:12;27.80;71.00
40638;DHT22;26336;44.696;10.622;2022-07-15T07:29:16;27.80;70.80
40638;DHT22;26336;44.696;10.622;2022-07-15T07:32:25;27.80;71.10
40638;DHT22;26336;44.696;10.622;2022-07-15T07:35:29;27.90;71.10
40638;DHT22;26336;44.696;10.622;2022-07-15T07:38:34;27.90;71.90
40638;DHT22;26336;44.696;10.622;2022-07-15T07:41:40;27.90;71.30
40638;DHT22;26336;44.696;10.622;2022-07-15T07:44:44;27.90;71.60
40638;DHT22;26336;44.696;10.622;2022-07-15T07:47:49;28.00;71.10
40638;DHT22;26336;44.696;10.622;2022-07-15T07:50:53;28.00;71.80
40638;DHT22;26336;44.696;10.622;2022-07-15T07:53:57;28.00;71.10
40638;DHT22;26336;44.696;10.622;2022-07-15T07:57:02;28.10;70.80
40638;DHT22;26336;44.696;10.622;2022-07-15T08:00:07;28.20;71.00
40638;DHT22;26336;44.696;10.622;2022-07-15T08:03:16;28.20;71.00
40638;DHT22;26336;44.696;10.622;2022-07-15T08:06:20;28.20;70.80
40638;DHT22;26336;44.696;10.622;2022-07-15T08:09:26;28.20;71.30
40638;DHT22;26336;44.696;10.622;2022-07-15T08:12:30;28.20;71.20
40638;DHT22;26336;44.696;10.622;2022-07-15T08:15:35;28.20;71.00
40638;DHT22;26336;44.696;10.622;2022-07-15T08:18:39;28.30;71.40
40638;DHT22;26336;44.696;10.622;2022-07-15T08:21:43;28.30;71.20
40638;DHT22;26336;44.696;10.622;2022-07-15T08:24:47;28.40;71.50
40638;DHT22;26336;44.696;10.622;2022-07-15T08:27:53;28.40;71.20
40638;DHT22;26336;44.696;10.622;2022-07-15T08:30:57;28.40;70.80
40638;DHT22;26336;44.696;10.622;2022-07-15T08:34:03;28.50;70.40
40638;DHT22;26336;44.696;10.622;2022-07-15T08:37:07;28.60;70.60
40638;DHT22;26336;44.696;10.622;2022-07-15T08:40:14;28.70;70.30
40638;DHT22;26336;44.696;10.622;2022-07-15T08:43:18;28.80;70.90
40638;DHT22;26336;44.696;10.622;2022-07-15T08:46:23;28.80;70.50
40638;DHT22;26336;44.696;10.622;2022-07-15T08:49:30;28.80;70.10
40638;DHT22;26336;44.696;10.622;2022-07-15T08:52:36;28.70;70.40
40638;DHT22;26336;44.696;10.622;2022-07-15T08:55:41;28.70;69.70
40638;DHT22;26336;44.696;10.622;2022-07-15T08:58:46;28.70;69.60
40638;DHT22;26336;44.696;10.622;2022-07-15T09:01:50;28.80;69.80
40638;DHT22;26336;44.696;10.622;2022-07-15T09:08:28;28.90;69.30
40638;DHT22;26336;44.696;10.622;2022-07-15T09:11:33;29.00;70.00
40638;DHT22;26336;44.696;10.622;2022-07-15T09:14:39;29.00;70.10
40638;DHT22;26336;44.696;10.622;2022-07-15T09:17:46;29.20;69.80
40638;DHT22;26336;44.696;10.622;2022-07-15T09:20:50;29.20;69.60
40638;DHT22;26336;44.696;10.622;2022-07-15T09:23:54;29.20;68.90
40638;DHT22;26336;44.696;10.622;2022-07-15T09:26:58;29.30;68.70
40638;DHT22;26336;44.696;10.622;2022-07-15T09:30:14;29.40;69.00
40638;DHT22;26336;44.696;10.622;2022-07-15T09:33:40;29.50;69.10
40638;DHT22;26336;44.696;10.622;2022-07-15T09:36:50;29.50;68.40
40638;DHT22;26336;44.696;10.622;2022-07-15T09:39:57;29.50;68.30
40638;DHT22;26336;44.696;10.622;2022-07-15T09:43:05;29.50;69.10
40638;DHT22;26336;44.696;10.622;2022-07-15T09:46:11;29.70;67.90
40638;DHT22;26336;44.696;10.622;2022-07-15T09:49:18;29.70;68.60
40638;DHT22;26336;44.696;10.622;2022-07-15T09:52:45;29.80;68.40
40638;DHT22;26336;44.696;10.622;2022-07-15T09:55:51;29.70;68.30
40638;DHT22;26336;44.696;10.622;2022-07-15T09:58:56;29.80;68.20
40638;DHT22;26336;44.696;10.622;2022-07-15T10:02:00;29.90;66.90
40638;DHT22;26336;44.696;10.622;2022-07-15T10:05:04;30.40;67.40
40638;DHT22;26336;44.696;10.622;2022-07-15T10:08:09;30.50;66.80
40638;DHT22;26336;44.696;10.622;2022-07-15T10:11:15;30.60;67.50
40638;DHT22;26336;44.696;10.622;2022-07-15T10:28:36;31.40;65.40
40638;DHT22;26336;44.696;10.622;2022-07-15T10:31:40;31.40;65.90
40638;DHT22;26336;44.696;10.622;2022-07-15T10:34:44;31.40;65.80
40638;DHT22;26336;44.696;10.622;2022-07-15T10:38:29;31.30;66.10
40638;DHT22;26336;44.696;10.622;2022-07-15T10:42:00;31.60;65.10
40638;DHT22;26336;44.696;10.622;2022-07-15T10:45:08;31.60;64.70
40638;DHT22;26336;44.696;10.622;2022-07-15T10:48:27;31.80;64.10
40638;DHT22;26336;44.696;10.622;2022-07-15T10:54:42;32.00;64.70
40638;DHT22;26336;44.696;10.622;2022-07-15T11:00:55;31.80;64.50
40638;DHT22;26336;44.696;10.622;2022-07-15T11:10:20;32.30;63.20
40638;DHT22;26336;44.696;10.622;2022-07-15T11:13:34;32.40;63.20
40638;DHT22;26336;44.696;10.622;2022-07-15T11:16:43;32.40;63.00
40638;DHT22;26336;44.696;10.622;2022-07-15T11:19:50;32.60;62.90
40638;DHT22;26336;44.696;10.622;2022-07-15T11:22:56;32.50;62.70
40638;DHT22;26336;44.696;10.622;2022-07-15T11:26:00;32.40;62.60
40638;DHT22;26336;44.696;10.622;2022-07-15T11:29:04;32.30;63.00
40638;DHT22;26336;44.696;10.622;2022-07-15T11:32:09;32.30;62.50
40638;DHT22;26336;44.696;10.622;2022-07-15T11:35:13;32.30;62.70
40638;DHT22;26336;44.696;10.622;2022-07-15T11:38:20;32.60;62.60
40638;DHT22;26336;44.696;10.622;2022-07-15T11:41:27;32.70;60.90
40638;DHT22;26336;44.696;10.622;2022-07-15T11:44:50;33.00;60.10
40638;DHT22;26336;44.696;10.622;2022-07-15T11:47:54;33.20;59.80
40638;DHT22;26336;44.696;10.622;2022-07-15T11:50:58;33.30;59.70
40638;DHT22;26336;44.696;10.622;2022-07-15T11:54:02;33.30;59.40
40638;DHT22;26336;44.696;10.622;2022-07-15T11:57:09;33.20;61.00
40638;DHT22;26336;44.696;10.622;2022-07-15T12:00:14;33.00;61.40
40638;DHT22;26336;44.696;10.622;2022-07-15T12:03:18;32.90;61.10
40638;DHT22;26336;44.696;10.622;2022-07-15T12:06:32;32.90;61.30
40638;DHT22;26336;44.696;10.622;2022-07-15T12:09:43;33.10;60.10
40638;DHT22;26336;44.696;10.622;2022-07-15T12:12:55;33.20;60.30
40638;DHT22;26336;44.696;10.622;2022-07-15T12:16:00;33.20;59.80
40638;DHT22;26336;44.696;10.622;2022-07-15T12:19:14;33.30;59.60
40638;DHT22;26336;44.696;10.622;2022-07-15T12:22:19;33.30;59.40
40638;DHT22;26336;44.696;10.622;2022-07-15T12:25:23;33.20;60.00
40638;DHT22;26336;44.696;10.622;2022-07-15T12:28:31;33.00;61.00
40638;DHT22;26336;44.696;10.622;2022-07-15T12:31:37;33.00;61.40
40638;DHT22;26336;44.696;10.622;2022-07-15T12:34:50;33.20;61.00
40638;DHT22;26336;44.696;10.622;2022-07-15T12:37:54;33.40;60.90
40638;DHT22;26336;44.696;10.622;2022-07-15T12:41:08;33.40;60.50
40638;DHT22;26336;44.696;10.622;2022-07-15T12:44:12;33.30;59.80
40638;DHT22;26336;44.696;10.622;2022-07-15T12:47:16;33.40;60.40
40638;DHT22;26336;44.696;10.622;2022-07-15T12:50:20;33.70;59.10
40638;DHT22;26336;44.696;10.622;2022-07-15T12:53:26;33.90;59.60
40638;DHT22;26336;44.696;10.622;2022-07-15T12:56:49;33.90;60.00
40638;DHT22;26336;44.696;10.622;2022-07-15T13:03:08;33.70;60.50
40638;DHT22;26336;44.696;10.622;2022-07-15T13:06:12;33.40;61.20
40638;DHT22;26336;44.696;10.622;2022-07-15T13:09:18;33.40;60.10
40638;DHT22;26336;44.696;10.622;2022-07-15T13:12:22;33.50;60.90
40638;DHT22;26336;44.696;10.622;2022-07-15T13:15:26;33.50;61.20
40638;DHT22;26336;44.696;10.622;2022-07-15T13:18:31;33.70;60.30
40638;DHT22;26336;44.696;10.622;2022-07-15T13:21:35;33.70;61.00
40638;DHT22;26336;44.696;10.622;2022-07-15T13:24:39;33.70;60.60
40638;DHT22;26336;44.696;10.622;2022-07-15T13:27:46;33.70;60.70
40638;DHT22;26336;44.696;10.622;2022-07-15T13:30:51;33.70;60.10
40638;DHT22;26336;44.696;10.622;2022-07-15T13:33:58;33.80;60.10
40638;DHT22;26336;44.696;10.622;2022-07-15T13:37:05;34.00;59.40
40638;DHT22;26336;44.696;10.622;2022-07-15T13:40:10;34.10;60.00
40638;DHT22;26336;44.696;10.622;2022-07-15T13:43:15;33.80;60.00
40638;DHT22;26336;44.696;10.622;2022-07-15T13:46:20;34.00;60.00
40638;DHT22;26336;44.696;10.622;2022-07-15T13:49:24;34.00;60.10
40638;DHT22;26336;44.696;10.622;2022-07-15T13:52:50;34.00;60.00
40638;DHT22;26336;44.696;10.622;2022-07-15T13:55:55;34.10;58.60
40638;DHT22;26336;44.696;10.622;2022-07-15T13:58:59;34.30;58.60
40638;DHT22;26336;44.696;10.622;2022-07-15T14:02:04;34.40;58.80
40638;DHT22;26336;44.696;10.622;2022-07-15T14:05:09;34.40;58.60
40638;DHT22;26336;44.696;10.622;2022-07-15T14:08:14;34.40;58.70
40638;DHT22;26336;44.696;10.622;2022-07-15T14:11:18;34.40;58.20
40638;DHT22;26336;44.696;10.622;2022-07-15T14:14:22;34.20;58.90
40638;DHT22;26336;44.696;10.622;2022-07-15T14:17:25;34.30;59.20
40638;DHT22;26336;44.696;10.622;2022-07-15T14:20:32;34.30;59.40
40638;DHT22;26336;44.696;10.622;2022-07-15T14:23:39;34.30;58.80
40638;DHT22;26336;44.696;10.622;2022-07-15T14:26:46;34.30;58.90
40638;DHT22;26336;44.696;10.622;2022-07-15T14:29:50;34.30;58.50
40638;DHT22;26336;44.696;10.622;2022-07-15T14:32:54;34.30;58.30
40638;DHT22;26336;44.696;10.622;2022-07-15T14:35:59;34.20;58.50
40638;DHT22;26336;44.696;10.622;2022-07-15T14:39:03;34.20;58.60
40638;DHT22;26336;44.696;10.622;2022-07-15T14:42:08;34.20;58.40
40638;DHT22;26336;44.696;10.622;2022-07-15T14:45:12;34.20;58.30
40638;DHT22;26336;44.696;10.622;2022-07-15T14:48:16;34.20;58.10
40638;DHT22;26336;44.696;10.622;2022-07-15T14:51:20;34.20;58.60
40638;DHT22;26336;44.696;10.622;2022-07-15T14:54:24;34.30;58.80
40638;DHT22;26336;44.696;10.622;2022-07-15T14:57:28;34.00;58.60
40638;DHT22;26336;44.696;10.622;2022-07-15T15:00:32;34.00;58.20
40638;DHT22;26336;44.696;10.622;2022-07-15T15:03:37;33.90;59.20
40638;DHT22;26336;44.696;10.622;2022-07-15T15:06:41;34.10;58.90
40638;DHT22;26336;44.696;10.622;2022-07-15T15:09:45;34.40;58.50
40638;DHT22;26336;44.696;10.622;2022-07-15T15:12:49;34.40;58.30
40638;DHT22;26336;44.696;10.622;2022-07-15T15:15:53;34.50;58.40
40638;DHT22;26336;44.696;10.622;2022-07-15T15:18:57;34.60;58.30
40638;DHT22;26336;44.696;10.622;2022-07-15T15:22:03;34.60;58.40
40638;DHT22;26336;44.696;10.622;2022-07-15T15:25:08;34.60;57.90
40638;DHT22;26336;44.696;10.622;2022-07-15T15:28:12;34.50;58.20
40638;DHT22;26336;44.696;10.622;2022-07-15T15:31:17;34.50;58.20
40638;DHT22;26336;44.696;10.622;2022-07-15T15:34:21;34.60;58.40
40638;DHT22;26336;44.696;10.622;2022-07-15T15:37:28;34.50;58.40
40638;DHT22;26336;44.696;10.622;2022-07-15T15:40:32;34.50;58.50
40638;DHT22;26336;44.696;10.622;2022-07-15T15:43:39;34.50;58.30
40638;DHT22;26336;44.696;10.622;2022-07-15T15:46:43;34.60;57.80
40638;DHT22;26336;44.696;10.622;2022-07-15T15:49:47;34.60;57.80
40638;DHT22;26336;44.696;10.622;2022-07-15T15:52:51;34.50;57.80
40638;DHT22;26336;44.696;10.622;2022-07-15T15:55:57;34.50;58.00
40638;DHT22;26336;44.696;10.622;2022-07-15T15:59:02;34.60;58.00
40638;DHT22;26336;44.696;10.622;2022-07-15T16:02:07;34.80;57.90
40638;DHT22;26336;44.696;10.622;2022-07-15T16:05:11;34.70;58.20
40638;DHT22;26336;44.696;10.622;2022-07-15T16:08:15;34.70;58.60
40638;DHT22;26336;44.696;10.622;2022-07-15T16:11:20;34.70;58.00
40638;DHT22;26336;44.696;10.622;2022-07-15T16:14:25;34.70;58.20
40638;DHT22;26336;44.696;10.622;2022-07-15T16:17:29;34.60;58.30
40638;DHT22;26336;44.696;10.622;2022-07-15T16:20:33;34.40;58.40
40638;DHT22;26336;44.696;10.622;2022-07-15T16:23:38;34.50;57.40
40638;DHT22;26336;44.696;10.622;2022-07-15T16:26:42;34.60;57.10
40638;DHT22;26336;44.696;10.622;2022-07-15T16:29:46;34.50;57.70
40638;DHT22;26336;44.696;10.622;2022-07-15T16:32:51;34.40;58.20
40638;DHT22;26336;44.696;10.622;2022-07-15T16:35:56;34.30;58.70
40638;DHT22;26336;44.696;10.622;2022-07-15T16:39:00;34.10;57.90
40638;DHT22;26336;44.696;10.622;2022-07-15T16:42:04;34.30;58.00
40638;DHT22;26336;44.696;10.622;2022-07-15T16:45:09;34.40;57.70
40638;DHT22;26336;44.696;10.622;2022-07-15T16:48:13;34.40;57.70
40638;DHT22;26336;44.696;10.622;2022-07-15T16:51:17;34.40;57.90
40638;DHT22;26336;44.696;10.622;2022-07-15T16:54:21;34.40;57.60
40638;DHT22;26336;44.696;10.622;2022-07-15T16:57:25;34.40;57.50
40638;DHT22;26336;44.696;10.622;2022-07-15T17:00:30;34.40;56.70
40638;DHT22;26336;44.696;10.622;2022-07-15T17:03:34;34.40;56.80
40638;DHT22;26336;44.696;10.622;2022-07-15T17:06:38;34.30;57.30
40638;DHT22;26336;44.696;10.622;2022-07-15T17:09:43;34.20;57.60
40638;DHT22;26336;44.696;10.622;2022-07-15T17:12:48;34.20;57.20
40638;DHT22;26336;44.696;10.622;2022-07-15T17:15:52;34.20;57.10
40638;DHT22;26336;44.696;10.622;2022-07-15T17:18:56;34.20;57.50
40638;DHT22;26336;44.696;10.622;2022-07-15T17:22:00;34.10;57.70
40638;DHT22;26336;44.696;10.622;2022-07-15T17:25:04;34.20;57.30
40638;DHT22;26336;44.696;10.622;2022-07-15T17:28:09;34.20;57.20
40638;DHT22;26336;44.696;10.622;2022-07-15T17:31:13;34.10;57.10
40638;DHT22;26336;44.696;10.622;2022-07-15T17:34:17;34.10;57.50
40638;DHT22;26336;44.696;10.622;2022-07-15T17:37:21;33.90;57.60
40638;DHT22;26336;44.696;10.622;2022-07-15T17:40:25;33.80;57.80
40638;DHT22;26336;44.696;10.622;2022-07-15T17:43:30;33.90;58.10
40638;DHT22;26336;44.696;10.622;2022-07-15T17:46:34;33.90;58.00
40638;DHT22;26336;44.696;10.622;2022-07-15T17:49:37;33.90;58.10
40638;DHT22;26336;44.696;10.622;2022-07-15T17:52:41;33.70;58.40
40638;DHT22;26336;44.696;10.622;2022-07-15T17:55:46;33.70;58.50
40638;DHT22;26336;44.696;10.622;2022-07-15T17:58:51;33.70;58.70
40638;DHT22;26336;44.696;10.622;2022-07-15T18:01:55;33.70;59.10
40638;DHT22;26336;44.696;10.622;2022-07-15T18:04:59;33.70;59.30
40638;DHT22;26336;44.696;10.622;2022-07-15T18:08:03;33.60;59.50
40638;DHT22;26336;44.696;10.622;2022-07-15T18:11:08;33.60;59.80
40638;DHT22;26336;44.696;10.622;2022-07-15T18:14:12;33.40;60.20
40638;DHT22;26336;44.696;10.622;2022-07-15T18:17:17;33.20;60.20
40638;DHT22;26336;44.696;10.622;2022-07-15T18:20:21;33.10;60.80
40638;DHT22;26336;44.696;10.622;2022-07-15T18:23:25;33.00;61.00
40638;DHT22;26336;44.696;10.622;2022-07-15T18:26:29;32.90;61.40
40638;DHT22;26336;44.696;10.622;2022-07-15T18:29:33;32.80;61.70
40638;DHT22;26336;44.696;10.622;2022-07-15T18:32:37;32.60;61.90
40638;DHT22;26336;44.696;10.622;2022-07-15T18:35:41;32.50;62.30
40638;DHT22;26336;44.696;10.622;2022-07-15T18:38:45;32.30;62.90
40638;DHT22;26336;44.696;10.622;2022-07-15T18:41:49;32.20;64.30
40638;DHT22;26336;44.696;10.622;2022-07-15T18:44:53;32.20;63.70
40638;DHT22;26336;44.696;10.622;2022-07-15T18:47:57;32.20;64.50
40638;DHT22;26336;44.696;10.622;2022-07-15T18:51:01;32.20;65.00
40638;DHT22;26336;44.696;10.622;2022-07-15T18:54:06;32.20;64.00
40638;DHT22;26336;44.696;10.622;2022-07-15T18:57:10;32.20;64.30
40638;DHT22;26336;44.696;10.622;2022-07-15T19:00:14;32.20;64.80
40638;DHT22;26336;44.696;10.622;2022-07-15T19:03:20;32.10;64.60
40638;DHT22;26336;44.696;10.622;2022-07-15T19:06:24;31.90;64.80
40638;DHT22;26336;44.696;10.622;2022-07-15T19:09:28;31.80;65.40
40638;DHT22;26336;44.696;10.622;2022-07-15T19:12:33;31.70;65.60
40638;DHT22;26336;44.696;10.622;2022-07-15T19:15:37;31.60;65.70
40638;DHT22;26336;44.696;10.622;2022-07-15T19:18:41;31.50;66.10
40638;DHT22;26336;44.696;10.622;2022-07-15T19:21:46;31.50;65.30
40638;DHT22;26336;44.696;10.622;2022-07-15T19:24:50;31.50;64.70
40638;DHT22;26336;44.696;10.622;2022-07-15T19:27:54;31.50;63.60
40638;DHT22;26336;44.696;10.622;2022-07-15T19:30:58;31.50;63.40
40638;DHT22;26336;44.696;10.622;2022-07-15T19:34:01;31.60;62.80
40638;DHT22;26336;44.696;10.622;2022-07-15T19:37:05;31.60;63.00
40638;DHT22;26336;44.696;10.622;2022-07-15T19:45:21;31.70;65.60
40638;DHT22;26336;44.696;10.622;2022-07-15T19:48:25;31.70;66.10
40638;DHT22;26336;44.696;10.622;2022-07-15T19:51:29;31.70;66.70
40638;DHT22;26336;44.696;10.622;2022-07-15T19:54:34;31.60;67.10